sensor_id;sensor_type;location;lat;lon;timestamp;temperature;humidity
4874;DHT22;2451;49.970;9.068;2022-10-31T00:00:42;12.20;99.90
4874;DHT22;2451;49.970;9.068;2022-10-31T00:03:08;12.20;99.90
4874;DHT22;2451;49.970;9.068;2022-10-31T00:05:33;12.20;99.90
4874;DHT22;2451;49.970;9.068;2022-10-31T00:07:59;12.20;99.90
4874;DHT22;2451;49.970;9.068;2022-10-31T00:10:24;12.20;99.90
4874;DHT22;2451;49.970;9.068;2022-10-31T00:12:51;12.20;99.90
4874;DHT22;2451;49.970;9.068;2022-10-31T00:15:16;12.20;99.90
4874;DHT22;2451;49.970;9.068;2022-10-31T00:17:42;12.20;99.90
4874;DHT22;2451;49.970;9.068;2022-10-31T00:20:08;12.20;99.90
4874;DHT22;2451;49.970;9.068;2022-10-31T00:22:33;12.10;99.90
4874;DHT22;2451;49.970;9.068;2022-10-31T00:24:59;12.10;99.90
4874;DHT22;2451;49.970;9.068;2022-10-31T00:27:25;12.10;99.90
4874;DHT22;2451;49.970;9.068;2022-10-31T00:29:50;12.10;99.90
4874;DHT22;2451;49.970;9.068;2022-10-31T00:32:16;12.10;99.90
4874;DHT22;2451;49.970;9.068;2022-10-31T00:34:41;12.00;99.90
4874;DHT22;2451;49.970;9.068;2022-10-31T00:37:07;12.00;99.90
4874;DHT22;2451;49.970;9.068;2022-10-31T00:39:32;11.90;99.90
4874;DHT22;2451;49.970;9.068;2022-10-31T00:41:58;11.90;99.90
4874;DHT22;2451;49.970;9.068;2022-10-31T00:44:23;11.90;99.90
4874;DHT22;2451;49.970;9.068;2022-10-31T00:46:49;11.80;99.90
4874;DHT22;2451;49.970;9.068;2022-10-31T00:49:14;11.90;99.90
4874;DHT22;2451;49.970;9.068;2022-10-31T00:51:40;11.90;99.90
4874;DHT22;2451;49.970;9.068;2022-10-31T00:54:06;11.90;99.90
4874;DHT22;2451;49.970;9.068;2022-10-31T00:56:31;11.90;99.90
4874;DHT22;2451;49.970;9.068;2022-10-31T00:58:57;12.00;99.90
4874;DHT22;2451;49.970;9.068;2022-10-31T01:01:22;12.00;99.90
4874;DHT22;2451;49.970;9.068;2022-10-31T01:03:48;12.00;99.90
4874;DHT22;2451;49.970;9.068;2022-10-31T01:06:13;12.00;99.90
4874;DHT22;2451;49.970;9.068;2022-10-31T01:08:40;12.00;99.90
4874;DHT22;2451;49.970;9.068;2022-10-31T01:11:13;12.00;99.90
4874;DHT22;2451;49.970;9.068;2022-10-31T01:13:40;12.00;99.90
4874;DHT22;2451;49.970;9.068;2022-10-31T01:16:07;12.00;99.90
4874;DHT22;2451;49.970;9.068;2022-10-31T01:18:33;12.00;99.90
4874;DHT22;2451;49.970;9.068;2022-10-31T01:21:06;11.90;99.90
4874;DHT22;2451;49.970;9.068;2022-10-31T01:23:32;11.90;99.90
4874;DHT22;2451;49.970;9.068;2022-10-31T01:26:15;11.90;99.90
4874;DHT22;2451;49.970;9.068;2022-10-31T01:28:55;11.80;99.90
4874;DHT22;2451;49.970;9.068;2022-10-31T01:31:23;11.80;99.90
4874;DHT22;2451;49.970;9.068;2022-10-31T01:33:49;11.70;99.90
4874;DHT22;2451;49.970;9.068;2022-10-31T01:36:17;11.70;99.90
4874;DHT22;2451;49.970;9.068;2022-10-31T01:38:43;11.60;99.90
4874;DHT22;2451;49.970;9.068;2022-10-31T01:41:11;11.60;99.90
4874;DHT22;2451;49.970;9.068;2022-10-31T01:43:48;11.60;99.90
4874;DHT22;2451;49.970;9.068;2022-10-31T01:46:16;11.50;99.90
4874;DHT22;2451;49.970;9.068;2022-10-31T01:48:42;11.40;99.90
4874;DHT22;2451;49.970;9.068;2022-10-31T01:51:11;11.40;99.90
4874;DHT22;2451;49.970;9.068;2022-10-31T01:53:38;11.40;99.90
4874;DHT22;2451;49.970;9.068;2022-10-31T01:56:05;11.40;99.90
4874;DHT22;2451;49.970;9.068;2022-10-31T01:58:31;11.30;99.90
4874;DHT22;2451;49.970;9.068;2022-10-31T02:00:59;11.30;99.90
4874;DHT22;2451;49.970;9.068;2022-10-31T02:03:25;11.30;99.90
4874;DHT22;2451;49.970;9.068;2022-10-31T02:05:53;11.20;99.90
4874;DHT22;2451;49.970;9.068;2022-10-31T02:08:30;11.20;99.90
4874;DHT22;2451;49.970;9.068;2022-10-31T02:10:58;11.20;99.90
4874;DHT22;2451;49.970;9.068;2022-10-31T02:13:25;11.10;99.90
4874;DHT22;2451;49.970;9.068;2022-10-31T02:15:57;11.10;99.90
4874;DHT22;2451;49.970;9.068;2022-10-31T02:18:26;11.10;99.90
4874;DHT22;2451;49.970;9.068;2022-10-31T02:32:09;10.90;99.90
4874;DHT22;2451;49.970;9.068;2022-10-31T02:34:53;10.80;99.90
4874;DHT22;2451;49.970;9.068;2022-10-31T02:37:27;10.80;99.90
4874;DHT22;2451;49.970;9.068;2022-10-31T02:47:49;10.70;99.90
4874;DHT22;2451;49.970;9.068;2022-10-31T02:50:37;10.70;99.90
4874;DHT22;2451;49.970;9.068;2022-10-31T02:53:05;10.60;99.90
4874;DHT22;2451;49.970;9.068;2022-10-31T02:58:03;10.60;99.90
4874;DHT22;2451;49.970;9.068;2022-10-31T03:00:33;10.60;99.90
4874;DHT22;2451;49.970;9.068;2022-10-31T03:03:11;10.60;99.90
4874;DHT22;2451;49.970;9.068;2022-10-31T03:05:58;10.60;99.90
4874;DHT22;2451;49.970;9.068;2022-10-31T03:08:50;10.60;99.90
4874;DHT22;2451;49.970;9.068;2022-10-31T03:11:22;10.60;99.90
4874;DHT22;2451;49.970;9.068;2022-10-31T03:14:06;10.60;99.90
4874;DHT22;2451;49.970;9.068;2022-10-31T03:16:50;10.60;99.90
4874;DHT22;2451;49.970;9.068;2022-10-31T03:19:24;10.70;99.90
4874;DHT22;2451;49.970;9.068;2022-10-31T03:22:02;10.70;99.90
4874;DHT22;2451;49.970;9.068;2022-10-31T03:24:34;10.70;99.90
4874;DHT22;2451;49.970;9.068;2022-10-31T03:27:02;10.80;99.90
4874;DHT22;2451;49.970;9.068;2022-10-31T03:29:33;10.80;99.90
4874;DHT22;2451;49.970;9.068;2022-10-31T03:32:16;10.80;99.90
4874;DHT22;2451;49.970;9.068;2022-10-31T03:34:44;10.80;99.90
4874;DHT22;2451;49.970;9.068;2022-10-31T03:37:14;10.80;99.90
4874;DHT22;2451;49.970;9.068;2022-10-31T03:39:43;10.80;99.90
4874;DHT22;2451;49.970;9.068;2022-10-31T03:42:13;10.80;99.90
4874;DHT22;2451;49.970;9.068;2022-10-31T03:44:44;10.80;99.90
4874;DHT22;2451;49.970;9.068;2022-10-31T03:47:10;10.80;99.90
4874;DHT22;2451;49.970;9.068;2022-10-31T03:49:36;10.80;99.90
4874;DHT22;2451;49.970;9.068;2022-10-31T03:52:23;10.80;99.90
4874;DHT22;2451;49.970;9.068;2022-10-31T03:55:05;10.80;99.90
4874;DHT22;2451;49.970;9.068;2022-10-31T03:57:37;10.70;99.90
4874;DHT22;2451;49.970;9.068;2022-10-31T04:00:08;10.70;99.90
4874;DHT22;2451;49.970;9.068;2022-10-31T04:02:39;10.70;99.90
4874;DHT22;2451;49.970;9.068;2022-10-31T04:05:06;10.70;99.90
4874;DHT22;2451;49.970;9.068;2022-10-31T04:07:37;10.70;99.90
4874;DHT22;2451;49.970;9.068;2022-10-31T04:10:08;10.60;99.90
4874;DHT22;2451;49.970;9.068;2022-10-31T04:12:36;10.70;99.90
4874;DHT22;2451;49.970;9.068;2022-10-31T04:15:05;10.70;99.90
4874;DHT22;2451;49.970;9.068;2022-10-31T04:17:34;10.70;99.90
4874;DHT22;2451;49.970;9.068;2022-10-31T04:20:00;10.70;99.90
4874;DHT22;2451;49.970;9.068;2022-10-31T04:22:26;10.70;99.90
4874;DHT22;2451;49.970;9.068;2022-10-31T04:24:52;10.70;99.90
4874;DHT22;2451;49.970;9.068;2022-10-31T04:27:17;10.70;99.90
4874;DHT22;2451;49.970;9.068;2022-10-31T04:29:43;10.60;99.90
4874;DHT22;2451;49.970;9.068;2022-10-31T04:32:09;10.60;99.90
4874;DHT22;2451;49.970;9.068;2022-10-31T04:34:34;10.50;99.90
4874;DHT22;2451;49.970;9.068;2022-10-31T04:37:00;10.50;99.90
4874;DHT22;2451;49.970;9.068;2022-10-31T04:39:25;10.50;99.90
4874;DHT22;2451;49.970;9.068;2022-10-31T04:41:51;10.50;99.90
4874;DHT22;2451;49.970;9.068;2022-10-31T04:44:16;10.40;99.90
4874;DHT22;2451;49.970;9.068;2022-10-31T04:46:42;10.40;99.90
4874;DHT22;2451;49.970;9.068;2022-10-31T04:49:07;10.40;99.90
4874;DHT22;2451;49.970;9.068;2022-10-31T04:51:33;10.40;99.90
4874;DHT22;2451;49.970;9.068;2022-10-31T04:53:58;10.40;99.90
4874;DHT22;2451;49.970;9.068;2022-10-31T04:56:24;10.40;99.90
4874;DHT22;2451;49.970;9.068;2022-10-31T04:58:50;10.30;99.90
4874;DHT22;2451;49.970;9.068;2022-10-31T05:01:15;10.30;99.90
4874;DHT22;2451;49.970;9.068;2022-10-31T05:03:41;10.30;99.90
4874;DHT22;2451;49.970;9.068;2022-10-31T05:06:07;10.40;99.90
4874;DHT22;2451;49.970;9.068;2022-10-31T05:08:32;10.40;99.90
4874;DHT22;2451;49.970;9.068;2022-10-31T05:11:02;10.40;99.90
4874;DHT22;2451;49.970;9.068;2022-10-31T05:13:28;10.50;99.90
4874;DHT22;2451;49.970;9.068;2022-10-31T05:15:54;10.50;99.90
4874;DHT22;2451;49.970;9.068;2022-10-31T05:18:20;10.50;99.90
4874;DHT22;2451;49.970;9.068;2022-10-31T05:20:45;10.50;99.90
4874;DHT22;2451;49.970;9.068;2022-10-31T05:23:11;10.60;99.90
4874;DHT22;2451;49.970;9.068;2022-10-31T05:25:36;10.60;99.90
4874;DHT22;2451;49.970;9.068;2022-10-31T05:28:02;10.60;99.90
4874;DHT22;2451;49.970;9.068;2022-10-31T05:30:30;10.60;99.90
4874;DHT22;2451;49.970;9.068;2022-10-31T05:32:56;10.70;99.90
4874;DHT22;2451;49.970;9.068;2022-10-31T05:35:25;10.60;99.90
4874;DHT22;2451;49.970;9.068;2022-10-31T05:37:51;10.60;99.90
4874;DHT22;2451;49.970;9.068;2022-10-31T05:40:18;10.60;99.90
4874;DHT22;2451;49.970;9.068;2022-10-31T05:42:45;10.60;99.90
4874;DHT22;2451;49.970;9.068;2022-10-31T05:45:13;10.60;99.90
4874;DHT22;2451;49.970;9.068;2022-10-31T05:47:39;10.60;99.90
4874;DHT22;2451;49.970;9.068;2022-10-31T05:50:06;10.60;99.90
4874;DHT22;2451;49.970;9.068;2022-10-31T05:52:32;10.60;99.90
4874;DHT22;2451;49.970;9.068;2022-10-31T05:54:57;10.60;99.90
4874;DHT22;2451;49.970;9.068;2022-10-31T05:57:23;10.50;99.90
4874;DHT22;2451;49.970;9.068;2022-10-31T05:59:49;10.50;99.90
4874;DHT22;2451;49.970;9.068;2022-10-31T06:02:18;10.50;99.90
4874;DHT22;2451;49.970;9.068;2022-10-31T06:04:44;10.50;99.90
4874;DHT22;2451;49.970;9.068;2022-10-31T06:07:09;10.60;99.90
4874;DHT22;2451;49.970;9.068;2022-10-31T06:09:35;10.60;99.90
4874;DHT22;2451;49.970;9.068;2022-10-31T06:12:00;10.70;99.90
4874;DHT22;2451;49.970;9.068;2022-10-31T06:14:26;10.70;99.90
4874;DHT22;2451;49.970;9.068;2022-10-31T06:16:51;10.80;99.90
4874;DHT22;2451;49.970;9.068;2022-10-31T06:19:17;10.90;99.90
4874;DHT22;2451;49.970;9.068;2022-10-31T06:21:42;10.90;99.90
4874;DHT22;2451;49.970;9.068;2022-10-31T06:24:08;10.90;99.90
4874;DHT22;2451;49.970;9.068;2022-10-31T06:26:34;10.90;99.90
4874;DHT22;2451;49.970;9.068;2022-10-31T06:28:59;11.00;99.90
4874;DHT22;2451;49.970;9.068;2022-10-31T06:31:25;11.10;99.90
4874;DHT22;2451;49.970;9.068;2022-10-31T06:33:50;11.20;99.90
4874;DHT22;2451;49.970;9.068;2022-10-31T06:36:16;11.30;99.90
4874;DHT22;2451;49.970;9.068;2022-10-31T06:38:41;11.40;99.90
4874;DHT22;2451;49.970;9.068;2022-10-31T06:41:08;11.30;99.90
4874;DHT22;2451;49.970;9.068;2022-10-31T06:43:34;11.30;99.90
4874;DHT22;2451;49.970;9.068;2022-10-31T06:46:02;11.30;99.90
4874;DHT22;2451;49.970;9.068;2022-10-31T06:48:28;11.60;99.90
4874;DHT22;2451;49.970;9.068;2022-10-31T06:50:58;11.80;99.90
4874;DHT22;2451;49.970;9.068;2022-10-31T06:53:24;12.20;99.90
4874;DHT22;2451;49.970;9.068;2022-10-31T06:55:49;12.60;99.90
4874;DHT22;2451;49.970;9.068;2022-10-31T06:58:15;13.10;99.90
4874;DHT22;2451;49.970;9.068;2022-10-31T07:00:40;13.50;99.90
4874;DHT22;2451;49.970;9.068;2022-10-31T07:03:11;13.90;99.90
4874;DHT22;2451;49.970;9.068;2022-10-31T07:05:37;14.30;99.90
4874;DHT22;2451;49.970;9.068;2022-10-31T07:08:06;14.30;99.90
4874;DHT22;2451;49.970;9.068;2022-10-31T07:10:34;14.20;99.90
4874;DHT22;2451;49.970;9.068;2022-10-31T07:13:03;14.20;99.90
4874;DHT22;2451;49.970;9.068;2022-10-31T07:15:32;14.10;99.90
4874;DHT22;2451;49.970;9.068;2022-10-31T07:18:05;14.30;99.90
4874;DHT22;2451;49.970;9.068;2022-10-31T07:20:31;14.80;99.90
4874;DHT22;2451;49.970;9.068;2022-10-31T07:22:57;15.20;99.90
4874;DHT22;2451;49.970;9.068;2022-10-31T07:25:23;15.50;99.90
4874;DHT22;2451;49.970;9.068;2022-10-31T07:27:49;15.70;99.90
4874;DHT22;2451;49.970;9.068;2022-10-31T07:30:14;15.90;99.90
4874;DHT22;2451;49.970;9.068;2022-10-31T07:32:46;16.10;99.90
4874;DHT22;2451;49.970;9.068;2022-10-31T07:35:14;16.60;99.90
4874;DHT22;2451;49.970;9.068;2022-10-31T07:37:41;17.10;99.90
4874;DHT22;2451;49.970;9.068;2022-10-31T07:40:07;17.10;99.90
4874;DHT22;2451;49.970;9.068;2022-10-31T07:42:41;16.80;99.90
4874;DHT22;2451;49.970;9.068;2022-10-31T07:45:09;16.60;99.90
4874;DHT22;2451;49.970;9.068;2022-10-31T07:47:39;16.50;99.90
4874;DHT22;2451;49.970;9.068;2022-10-31T07:50:05;16.10;99.90
4874;DHT22;2451;49.970;9.068;2022-10-31T07:52:31;15.90;99.90
4874;DHT22;2451;49.970;9.068;2022-10-31T07:54:56;15.80;99.90
4874;DHT22;2451;49.970;9.068;2022-10-31T07:57:22;15.80;99.90
4874;DHT22;2451;49.970;9.068;2022-10-31T07:59:47;15.90;99.90
4874;DHT22;2451;49.970;9.068;2022-10-31T08:02:13;15.90;99.90
4874;DHT22;2451;49.970;9.068;2022-10-31T08:04:38;16.10;99.90
4874;DHT22;2451;49.970;9.068;2022-10-31T08:07:04;16.20;99.90
4874;DHT22;2451;49.970;9.068;2022-10-31T08:09:29;16.40;99.90
4874;DHT22;2451;49.970;9.068;2022-10-31T08:11:55;16.40;99.90
4874;DHT22;2451;49.970;9.068;2022-10-31T08:14:20;16.20;99.90
4874;DHT22;2451;49.970;9.068;2022-10-31T08:16:47;15.90;99.90
4874;DHT22;2451;49.970;9.068;2022-10-31T08:19:13;15.80;99.90
4874;DHT22;2451;49.970;9.068;2022-10-31T08:21:38;15.60;99.90
4874;DHT22;2451;49.970;9.068;2022-10-31T08:24:04;15.40;99.90
4874;DHT22;2451;49.970;9.068;2022-10-31T08:26:30;15.20;99.90
4874;DHT22;2451;49.970;9.068;2022-10-31T08:28:56;15.00;99.90
4874;DHT22;2451;49.970;9.068;2022-10-31T08:31:21;14.90;99.90
4874;DHT22;2451;49.970;9.068;2022-10-31T08:33:48;14.80;99.90
4874;DHT22;2451;49.970;9.068;2022-10-31T08:36:14;14.70;99.90
4874;DHT22;2451;49.970;9.068;2022-10-31T08:38:39;14.60;99.90
4874;DHT22;2451;49.970;9.068;2022-10-31T08:41:05;14.60;99.90
4874;DHT22;2451;49.970;9.068;2022-10-31T08:43:30;14.50;99.90
4874;DHT22;2451;49.970;9.068;2022-10-31T08:45:56;14.50;99.90
4874;DHT22;2451;49.970;9.068;2022-10-31T08:48:21;14.70;99.90
4874;DHT22;2451;49.970;9.068;2022-10-31T08:50:47;14.80;99.90
4874;DHT22;2451;49.970;9.068;2022-10-31T08:53:18;15.10;99.90
4874;DHT22;2451;49.970;9.068;2022-10-31T08:55:45;15.20;99.90
4874;DHT22;2451;49.970;9.068;2022-10-31T08:58:13;15.40;99.90
4874;DHT22;2451;49.970;9.068;2022-10-31T09:00:39;15.50;99.90
4874;DHT22;2451;49.970;9.068;2022-10-31T09:03:15;15.80;99.90
4874;DHT22;2451;49.970;9.068;2022-10-31T09:05:40;16.10;99.90
4874;DHT22;2451;49.970;9.068;2022-10-31T09:08:07;16.40;99.90
4874;DHT22;2451;49.970;9.068;2022-10-31T09:10:34;16.70;99.90
4874;DHT22;2451;49.970;9.068;2022-10-31T09:13:02;17.10;99.90
4874;DHT22;2451;49.970;9.068;2022-10-31T09:15:32;17.30;99.90
4874;DHT22;2451;49.970;9.068;2022-10-31T09:17:58;17.40;99.90
4874;DHT22;2451;49.970;9.068;2022-10-31T09:20:24;17.70;99.90
4874;DHT22;2451;49.970;9.068;2022-10-31T09:23:01;17.90;99.90
4874;DHT22;2451;49.970;9.068;2022-10-31T09:25:27;18.10;99.90
4874;DHT22;2451;49.970;9.068;2022-10-31T09:27:57;18.30;99.90
4874;DHT22;2451;49.970;9.068;2022-10-31T09:30:27;18.50;99.90
4874;DHT22;2451;49.970;9.068;2022-10-31T09:33:01;18.60;99.90
4874;DHT22;2451;49.970;9.068;2022-10-31T09:35:27;18.70;99.90
4874;DHT22;2451;49.970;9.068;2022-10-31T09:37:57;18.70;99.90
4874;DHT22;2451;49.970;9.068;2022-10-31T09:53:02;19.60;99.90
4874;DHT22;2451;49.970;9.068;2022-10-31T09:55:39;19.70;99.90
4874;DHT22;2451;49.970;9.068;2022-10-31T09:58:13;19.80;99.90
4874;DHT22;2451;49.970;9.068;2022-10-31T10:00:40;19.90;99.90
4874;DHT22;2451;49.970;9.068;2022-10-31T10:08:34;20.00;99.90
4874;DHT22;2451;49.970;9.068;2022-10-31T10:11:22;19.90;99.90
4874;DHT22;2451;49.970;9.068;2022-10-31T10:25:45;19.60;99.90
4874;DHT22;2451;49.970;9.068;2022-10-31T10:30:44;20.00;99.90
4874;DHT22;2451;49.970;9.068;2022-10-31T10:33:16;20.20;99.90
4874;DHT22;2451;49.970;9.068;2022-10-31T10:35:49;20.30;99.90
4874;DHT22;2451;49.970;9.068;2022-10-31T10:38:31;20.50;99.90
4874;DHT22;2451;49.970;9.068;2022-10-31T10:41:01;20.50;99.90
4874;DHT22;2451;49.970;9.068;2022-10-31T10:43:33;20.60;99.90
4874;DHT22;2451;49.970;9.068;2022-10-31T10:51:59;21.10;99.90
4874;DHT22;2451;49.970;9.068;2022-10-31T10:54:54;21.20;99.90
4874;DHT22;2451;49.970;9.068;2022-10-31T10:59:56;21.20;99.90
4874;DHT22;2451;49.970;9.068;2022-10-31T11:02:25;21.20;99.90
4874;DHT22;2451;49.970;9.068;2022-10-31T11:04:54;21.00;99.90
4874;DHT22;2451;49.970;9.068;2022-10-31T11:07:20;20.70;99.90
4874;DHT22;2451;49.970;9.068;2022-10-31T11:09:46;20.60;99.90
4874;DHT22;2451;49.970;9.068;2022-10-31T11:12:29;20.50;99.90
4874;DHT22;2451;49.970;9.068;2022-10-31T11:14:58;20.50;99.90
4874;DHT22;2451;49.970;9.068;2022-10-31T11:17:39;20.40;99.90
4874;DHT22;2451;49.970;9.068;2022-10-31T11:23:04;20.20;99.90
4874;DHT22;2451;49.970;9.068;2022-10-31T11:25:30;20.40;99.90
4874;DHT22;2451;49.970;9.068;2022-10-31T11:28:03;20.50;99.90
4874;DHT22;2451;49.970;9.068;2022-10-31T11:30:31;20.50;99.90
4874;DHT22;2451;49.970;9.068;2022-10-31T11:33:01;20.60;99.90
4874;DHT22;2451;49.970;9.068;2022-10-31T11:35:27;20.70;99.90
4874;DHT22;2451;49.970;9.068;2022-10-31T11:37:56;20.90;99.90
4874;DHT22;2451;49.970;9.068;2022-10-31T11:40:25;21.00;99.90
4874;DHT22;2451;49.970;9.068;2022-10-31T11:42:53;21.20;99.90
4874;DHT22;2451;49.970;9.068;2022-10-31T11:47:51;21.10;99.90
4874;DHT22;2451;49.970;9.068;2022-10-31T11:50:19;21.20;99.90
4874;DHT22;2451;49.970;9.068;2022-10-31T11:52:45;21.20;99.90
4874;DHT22;2451;49.970;9.068;2022-10-31T11:55:17;21.10;99.90
4874;DHT22;2451;49.970;9.068;2022-10-31T11:57:46;21.10;99.90
4874;DHT22;2451;49.970;9.068;2022-10-31T12:00:33;21.00;99.90
4874;DHT22;2451;49.970;9.068;2022-10-31T12:06:09;20.80;99.90
4874;DHT22;2451;49.970;9.068;2022-10-31T12:08:39;20.60;99.90
4874;DHT22;2451;49.970;9.068;2022-10-31T12:11:32;20.50;99.90
4874;DHT22;2451;49.970;9.068;2022-10-31T12:14:05;20.40;99.90
4874;DHT22;2451;49.970;9.068;2022-10-31T12:16:54;20.40;99.90
4874;DHT22;2451;49.970;9.068;2022-10-31T12:19:44;20.30;99.90
4874;DHT22;2451;49.970;9.068;2022-10-31T12:25:12;20.20;99.90
4874;DHT22;2451;49.970;9.068;2022-10-31T12:28:27;20.20;99.90
4874;DHT22;2451;49.970;9.068;2022-10-31T12:34:31;19.90;99.90
4874;DHT22;2451;49.970;9.068;2022-10-31T12:39:44;19.90;99.90
4874;DHT22;2451;49.970;9.068;2022-10-31T12:43:20;19.90;99.90
4874;DHT22;2451;49.970;9.068;2022-10-31T12:45:29;20.10;99.90
4874;DHT22;2451;49.970;9.068;2022-10-31T12:51:09;20.30;99.90
4874;DHT22;2451;49.970;9.068;2022-10-31T13:02:31;20.40;99.90
4874;DHT22;2451;49.970;9.068;2022-10-31T13:05:03;20.40;99.90
4874;DHT22;2451;49.970;9.068;2022-10-31T13:07:37;20.40;99.90
4874;DHT22;2451;49.970;9.068;2022-10-31T13:10:19;20.40;99.90
4874;DHT22;2451;49.970;9.068;2022-10-31T13:12:49;20.40;99.90
4874;DHT22;2451;49.970;9.068;2022-10-31T13:15:26;20.40;99.90
4874;DHT22;2451;49.970;9.068;2022-10-31T13:18:01;20.30;99.90
4874;DHT22;2451;49.970;9.068;2022-10-31T13:20:30;20.30;99.90
4874;DHT22;2451;49.970;9.068;2022-10-31T13:23:11;20.20;99.90
4874;DHT22;2451;49.970;9.068;2022-10-31T13:25:44;20.20;99.90
4874;DHT22;2451;49.970;9.068;2022-10-31T13:31:10;20.10;99.90
4874;DHT22;2451;49.970;9.068;2022-10-31T13:33:42;20.00;99.90
4874;DHT22;2451;49.970;9.068;2022-10-31T13:36:28;20.10;99.90
4874;DHT22;2451;49.970;9.068;2022-10-31T13:41:47;19.90;99.90
4874;DHT22;2451;49.970;9.068;2022-10-31T13:44:14;19.80;99.90
4874;DHT22;2451;49.970;9.068;2022-10-31T13:46:43;19.70;99.90
4874;DHT22;2451;49.970;9.068;2022-10-31T13:54:46;19.50;99.90
4874;DHT22;2451;49.970;9.068;2022-10-31T13:57:33;19.40;99.90
4874;DHT22;2451;49.970;9.068;2022-10-31T14:02:55;19.20;99.90
4874;DHT22;2451;49.970;9.068;2022-10-31T14:05:39;19.10;99.90
4874;DHT22;2451;49.970;9.068;2022-10-31T14:08:06;19.10;99.90
4874;DHT22;2451;49.970;9.068;2022-10-31T14:10:50;19.10;99.90
4874;DHT22;2451;49.970;9.068;2022-10-31T14:13:41;19.00;99.90
4874;DHT22;2451;49.970;9.068;2022-10-31T14:19:22;18.90;99.90
4874;DHT22;2451;49.970;9.068;2022-10-31T14:21:49;18.90;99.90
4874;DHT22;2451;49.970;9.068;2022-10-31T14:24:31;18.90;99.90
4874;DHT22;2451;49.970;9.068;2022-10-31T14:29:42;18.80;99.90
4874;DHT22;2451;49.970;9.068;2022-10-31T14:35:04;18.70;99.90
4874;DHT22;2451;49.970;9.068;2022-10-31T14:51:18;19.20;99.90
4874;DHT22;2451;49.970;9.068;2022-10-31T14:53:55;19.30;99.90
4874;DHT22;2451;49.970;9.068;2022-10-31T14:56:26;19.30;99.90
4874;DHT22;2451;49.970;9.068;2022-10-31T14:58:54;19.30;99.90
4874;DHT22;2451;49.970;9.068;2022-10-31T15:01:28;19.20;99.90
4874;DHT22;2451;49.970;9.068;2022-10-31T15:04:16;19.30;99.90
4874;DHT22;2451;49.970;9.068;2022-10-31T15:06:49;19.20;99.90
4874;DHT22;2451;49.970;9.068;2022-10-31T15:09:30;19.20;99.90
4874;DHT22;2451;49.970;9.068;2022-10-31T15:12:01;19.20;99.90
4874;DHT22;2451;49.970;9.068;2022-10-31T15:14:39;19.20;99.90
4874;DHT22;2451;49.970;9.068;2022-10-31T15:17:05;19.10;99.90
4874;DHT22;2451;49.970;9.068;2022-10-31T15:19:32;19.10;99.90
4874;DHT22;2451;49.970;9.068;2022-10-31T15:22:00;19.00;99.90
4874;DHT22;2451;49.970;9.068;2022-10-31T15:24:33;18.90;99.90
4874;DHT22;2451;49.970;9.068;2022-10-31T15:27:00;18.80;99.90
4874;DHT22;2451;49.970;9.068;2022-10-31T15:29:26;18.60;99.90
4874;DHT22;2451;49.970;9.068;2022-10-31T15:31:57;18.50;99.90
4874;DHT22;2451;49.970;9.068;2022-10-31T15:34:35;18.40;99.90
4874;DHT22;2451;49.970;9.068;2022-10-31T15:37:02;18.30;99.90
4874;DHT22;2451;49.970;9.068;2022-10-31T15:39:28;18.20;99.90
4874;DHT22;2451;49.970;9.068;2022-10-31T15:41:56;18.10;99.90
4874;DHT22;2451;49.970;9.068;2022-10-31T15:44:28;18.00;99.90
4874;DHT22;2451;49.970;9.068;2022-10-31T15:47:01;17.80;99.90
4874;DHT22;2451;49.970;9.068;2022-10-31T15:49:36;17.70;99.90
4874;DHT22;2451;49.970;9.068;2022-10-31T15:52:17;17.60;99.90
4874;DHT22;2451;49.970;9.068;2022-10-31T15:54:50;17.50;99.90
4874;DHT22;2451;49.970;9.068;2022-10-31T15:57:17;17.40;99.90
4874;DHT22;2451;49.970;9.068;2022-10-31T15:59:46;17.30;99.90
4874;DHT22;2451;49.970;9.068;2022-10-31T16:02:13;17.20;99.90
4874;DHT22;2451;49.970;9.068;2022-10-31T16:04:58;17.10;99.90
4874;DHT22;2451;49.970;9.068;2022-10-31T16:07:25;17.00;99.90
4874;DHT22;2451;49.970;9.068;2022-10-31T16:09:54;16.90;99.90
4874;DHT22;2451;49.970;9.068;2022-10-31T16:12:22;16.80;99.90
4874;DHT22;2451;49.970;9.068;2022-10-31T16:14:53;16.70;99.90
4874;DHT22;2451;49.970;9.068;2022-10-31T16:17:21;16.60;99.90
4874;DHT22;2451;49.970;9.068;2022-10-31T16:19:52;16.50;99.90
4874;DHT22;2451;49.970;9.068;2022-10-31T16:22:21;16.50;99.90
4874;DHT22;2451;49.970;9.068;2022-10-31T16:27:20;16.30;99.90
4874;DHT22;2451;49.970;9.068;2022-10-31T16:29:50;16.30;99.90
4874;DHT22;2451;49.970;9.068;2022-10-31T16:37:36;16.20;99.90
4874;DHT22;2451;49.970;9.068;2022-10-31T16:40:02;16.10;99.90
4874;DHT22;2451;49.970;9.068;2022-10-31T16:42:28;16.00;99.90
4874;DHT22;2451;49.970;9.068;2022-10-31T16:44:54;16.00;99.90
4874;DHT22;2451;49.970;9.068;2022-10-31T16:47:19;16.00;99.90
4874;DHT22;2451;49.970;9.068;2022-10-31T16:49:47;15.90;99.90
4874;DHT22;2451;49.970;9.068;2022-10-31T16:52:14;16.00;99.90
4874;DHT22;2451;49.970;9.068;2022-10-31T16:54:40;15.90;99.90
4874;DHT22;2451;49.970;9.068;2022-10-31T16:57:06;15.80;99.90
4874;DHT22;2451;49.970;9.068;2022-10-31T16:59:36;15.80;99.90
4874;DHT22;2451;49.970;9.068;2022-10-31T17:02:03;15.70;99.90
4874;DHT22;2451;49.970;9.068;2022-10-31T17:04:29;15.60;99.90
4874;DHT22;2451;49.970;9.068;2022-10-31T17:06:54;15.60;99.90
4874;DHT22;2451;49.970;9.068;2022-10-31T17:09:20;15.60;99.90
4874;DHT22;2451;49.970;9.068;2022-10-31T17:11:47;15.50;99.90
4874;DHT22;2451;49.970;9.068;2022-10-31T17:14:14;15.50;99.90
4874;DHT22;2451;49.970;9.068;2022-10-31T17:16:40;15.50;99.90
4874;DHT22;2451;49.970;9.068;2022-10-31T17:19:09;15.50;99.90
4874;DHT22;2451;49.970;9.068;2022-10-31T17:21:35;15.50;99.90
4874;DHT22;2451;49.970;9.068;2022-10-31T17:24:01;15.40;99.90
4874;DHT22;2451;49.970;9.068;2022-10-31T17:26:27;15.40;99.90
4874;DHT22;2451;49.970;9.068;2022-10-31T17:28:52;15.40;99.90
4874;DHT22;2451;49.970;9.068;2022-10-31T17:31:22;15.40;99.90
4874;DHT22;2451;49.970;9.068;2022-10-31T17:33:48;15.40;99.90
4874;DHT22;2451;49.970;9.068;2022-10-31T17:36:14;15.30;99.90
4874;DHT22;2451;49.970;9.068;2022-10-31T17:38:39;15.30;99.90
4874;DHT22;2451;49.970;9.068;2022-10-31T17:41:06;15.30;99.90
4874;DHT22;2451;49.970;9.068;2022-10-31T17:43:31;15.20;99.90
4874;DHT22;2451;49.970;9.068;2022-10-31T17:45:58;15.10;99.90
4874;DHT22;2451;49.970;9.068;2022-10-31T17:48:24;15.00;99.90
4874;DHT22;2451;49.970;9.068;2022-10-31T17:50:51;15.00;99.90
4874;DHT22;2451;49.970;9.068;2022-10-31T17:53:17;14.90;99.90
4874;DHT22;2451;49.970;9.068;2022-10-31T17:55:42;14.90;99.90
4874;DHT22;2451;49.970;9.068;2022-10-31T17:58:09;14.90;99.90
4874;DHT22;2451;49.970;9.068;2022-10-31T18:00:38;14.90;99.90
4874;DHT22;2451;49.970;9.068;2022-10-31T18:03:05;14.90;99.90
4874;DHT22;2451;49.970;9.068;2022-10-31T18:05:31;14.90;99.90
4874;DHT22;2451;49.970;9.068;2022-10-31T18:07:56;14.90;99.90
4874;DHT22;2451;49.970;9.068;2022-10-31T18:10:22;14.90;99.90
4874;DHT22;2451;49.970;9.068;2022-10-31T18:12:48;14.90;99.90
4874;DHT22;2451;49.970;9.068;2022-10-31T18:15:14;15.00;99.90
4874;DHT22;2451;49.970;9.068;2022-10-31T18:17:40;14.90;99.90
4874;DHT22;2451;49.970;9.068;2022-10-31T18:20:06;15.00;99.90
4874;DHT22;2451;49.970;9.068;2022-10-31T18:22:32;14.90;99.90
4874;DHT22;2451;49.970;9.068;2022-10-31T18:24:58;14.90;99.90
4874;DHT22;2451;49.970;9.068;2022-10-31T18:27:23;14.90;99.90
4874;DHT22;2451;49.970;9.068;2022-10-31T18:29:51;14.90;99.90
4874;DHT22;2451;49.970;9.068;2022-10-31T18:32:16;14.90;99.90